sensor_id;sensor_type;location;lat;lon;timestamp;P1;durP1;ratioP1;P2;durP2;ratioP2
18435;SDS011;9346;52.006;4.720;2023-04-25T00:01:02;9.30;;;3.40;;
18435;SDS011;9346;52.006;4.720;2023-04-25T00:03:30;6.03;;;2.10;;
18435;SDS011;9346;52.006;4.720;2023-04-25T00:05:56;12.27;;;2.03;;
18435;SDS011;9346;52.006;4.720;2023-04-25T00:08:27;9.90;;;2.87;;
18435;SDS011;9346;52.006;4.720;2023-04-25T00:10:54;9.60;;;2.53;;
18435;SDS011;9346;52.006;4.720;2023-04-25T00:13:21;11.97;;;3.20;;
18435;SDS011;9346;52.006;4.720;2023-04-25T00:15:52;10.90;;;2.87;;
18435;SDS011;9346;52.006;4.720;2023-04-25T00:18:19;7.77;;;3.00;;
18435;SDS011;9346;52.006;4.720;2023-04-25T00:20:46;14.43;;;2.20;;
18435;SDS011;9346;52.006;4.720;2023-04-25T00:23:13;15.23;;;2.57;;
18435;SDS011;9346;52.006;4.720;2023-04-25T00:25:42;14.13;;;2.53;;
18435;SDS011;9346;52.006;4.720;2023-04-25T00:28:10;14.47;;;3.30;;
18435;SDS011;9346;52.006;4.720;2023-04-25T00:30:37;11.13;;;3.33;;
18435;SDS011;9346;52.006;4.720;2023-04-25T00:33:07;12.43;;;2.13;;
18435;SDS011;9346;52.006;4.720;2023-04-25T00:35:36;10.97;;;3.07;;
18435;SDS011;9346;52.006;4.720;2023-04-25T00:38:04;10.33;;;2.33;;
18435;SDS011;9346;52.006;4.720;2023-04-25T00:40:31;6.90;;;2.20;;
18435;SDS011;9346;52.006;4.720;2023-04-25T00:42:58;8.93;;;2.27;;
18435;SDS011;9346;52.006;4.720;2023-04-25T00:45:27;9.30;;;2.67;;
18435;SDS011;9346;52.006;4.720;2023-04-25T00:47:55;9.90;;;2.40;;
18435;SDS011;9346;52.006;4.720;2023-04-25T00:50:24;6.03;;;1.90;;
18435;SDS011;9346;52.006;4.720;2023-04-25T00:52:51;7.57;;;2.63;;
18435;SDS011;9346;52.006;4.720;2023-04-25T00:55:18;8.20;;;2.47;;
18435;SDS011;9346;52.006;4.720;2023-04-25T00:57:46;21.50;;;3.53;;
18435;SDS011;9346;52.006;4.720;2023-04-25T01:00:13;7.80;;;2.53;;
18435;SDS011;9346;52.006;4.720;2023-04-25T01:02:41;8.90;;;2.83;;
18435;SDS011;9346;52.006;4.720;2023-04-25T01:05:08;8.17;;;2.97;;
18435;SDS011;9346;52.006;4.720;2023-04-25T01:07:38;6.00;;;2.63;;
18435;SDS011;9346;52.006;4.720;2023-04-25T01:10:06;6.93;;;2.30;;
18435;SDS011;9346;52.006;4.720;2023-04-25T01:12:35;11.30;;;3.47;;
18435;SDS011;9346;52.006;4.720;2023-04-25T01:15:02;4.27;;;2.03;;
18435;SDS011;9346;52.006;4.720;2023-04-25T01:17:29;7.43;;;2.60;;
18435;SDS011;9346;52.006;4.720;2023-04-25T01:19:57;4.73;;;1.87;;
18435;SDS011;9346;52.006;4.720;2023-04-25T01:22:25;7.67;;;2.50;;
18435;SDS011;9346;52.006;4.720;2023-04-25T01:24:52;8.70;;;1.90;;
18435;SDS011;9346;52.006;4.720;2023-04-25T01:27:19;8.30;;;2.70;;
18435;SDS011;9346;52.006;4.720;2023-04-25T01:29:47;6.87;;;2.53;;
18435;SDS011;9346;52.006;4.720;2023-04-25T01:32:16;5.60;;;3.23;;
18435;SDS011;9346;52.006;4.720;2023-04-25T01:34:44;7.53;;;2.20;;
18435;SDS011;9346;52.006;4.720;2023-04-25T01:37:11;6.03;;;1.90;;
18435;SDS011;9346;52.006;4.720;2023-04-25T01:39:40;14.13;;;2.47;;
18435;SDS011;9346;52.006;4.720;2023-04-25T01:42:08;10.07;;;3.10;;
18435;SDS011;9346;52.006;4.720;2023-04-25T01:44:35;12.93;;;2.43;;
18435;SDS011;9346;52.006;4.720;2023-04-25T01:47:02;19.63;;;3.30;;
18435;SDS011;9346;52.006;4.720;2023-04-25T01:49:29;12.50;;;2.13;;
18435;SDS011;9346;52.006;4.720;2023-04-25T01:51:56;15.23;;;2.03;;
18435;SDS011;9346;52.006;4.720;2023-04-25T01:54:23;7.47;;;1.97;;
18435;SDS011;9346;52.006;4.720;2023-04-25T01:56:51;4.50;;;1.80;;
18435;SDS011;9346;52.006;4.720;2023-04-25T01:59:21;8.30;;;2.47;;
18435;SDS011;9346;52.006;4.720;2023-04-25T02:01:48;9.83;;;2.07;;
18435;SDS011;9346;52.006;4.720;2023-04-25T02:04:15;8.10;;;2.47;;
18435;SDS011;9346;52.006;4.720;2023-04-25T02:06:42;9.83;;;2.67;;
18435;SDS011;9346;52.006;4.720;2023-04-25T02:09:08;13.80;;;2.80;;
18435;SDS011;9346;52.006;4.720;2023-04-25T02:11:35;5.97;;;2.33;;
18435;SDS011;9346;52.006;4.720;2023-04-25T02:14:04;4.67;;;2.10;;
18435;SDS011;9346;52.006;4.720;2023-04-25T02:16:31;7.47;;;2.00;;
18435;SDS011;9346;52.006;4.720;2023-04-25T02:18:58;11.07;;;2.57;;
18435;SDS011;9346;52.006;4.720;2023-04-25T02:21:25;3.27;;;2.00;;
18435;SDS011;9346;52.006;4.720;2023-04-25T02:23:52;9.73;;;2.20;;
18435;SDS011;9346;52.006;4.720;2023-04-25T02:26:19;10.40;;;2.47;;
18435;SDS011;9346;52.006;4.720;2023-04-25T02:28:48;8.97;;;2.00;;
18435;SDS011;9346;52.006;4.720;2023-04-25T02:31:17;4.27;;;1.97;;
18435;SDS011;9346;52.006;4.720;2023-04-25T02:33:44;10.47;;;1.93;;
18435;SDS011;9346;52.006;4.720;2023-04-25T02:36:11;12.23;;;2.27;;
18435;SDS011;9346;52.006;4.720;2023-04-25T02:38:38;7.87;;;2.50;;
18435;SDS011;9346;52.006;4.720;2023-04-25T02:41:05;7.00;;;2.60;;
18435;SDS011;9346;52.006;4.720;2023-04-25T02:43:32;8.77;;;2.67;;
18435;SDS011;9346;52.006;4.720;2023-04-25T02:45:59;8.60;;;2.33;;
18435;SDS011;9346;52.006;4.720;2023-04-25T02:48:28;9.60;;;1.83;;
18435;SDS011;9346;52.006;4.720;2023-04-25T02:50:55;10.83;;;2.07;;
18435;SDS011;9346;52.006;4.720;2023-04-25T02:53:22;4.80;;;1.47;;
18435;SDS011;9346;52.006;4.720;2023-04-25T02:55:49;14.93;;;2.63;;
18435;SDS011;9346;52.006;4.720;2023-04-25T02:58:17;5.40;;;1.93;;
18435;SDS011;9346;52.006;4.720;2023-04-25T03:00:44;10.57;;;2.30;;
18435;SDS011;9346;52.006;4.720;2023-04-25T03:03:11;7.77;;;1.97;;
18435;SDS011;9346;52.006;4.720;2023-04-25T03:05:40;9.63;;;2.27;;
18435;SDS011;9346;52.006;4.720;2023-04-25T03:08:07;17.60;;;2.57;;
18435;SDS011;9346;52.006;4.720;2023-04-25T03:10:33;7.87;;;1.70;;
18435;SDS011;9346;52.006;4.720;2023-04-25T03:13:00;8.13;;;2.33;;
18435;SDS011;9346;52.006;4.720;2023-04-25T03:15:27;14.43;;;2.27;;
18435;SDS011;9346;52.006;4.720;2023-04-25T03:17:54;11.47;;;2.33;;
18435;SDS011;9346;52.006;4.720;2023-04-25T03:20:21;5.87;;;1.73;;
18435;SDS011;9346;52.006;4.720;2023-04-25T03:22:50;11.30;;;2.40;;
18435;SDS011;9346;52.006;4.720;2023-04-25T03:25:17;8.90;;;2.67;;
18435;SDS011;9346;52.006;4.720;2023-04-25T03:27:44;16.50;;;2.00;;
18435;SDS011;9346;52.006;4.720;2023-04-25T03:30:13;9.90;;;2.43;;
18435;SDS011;9346;52.006;4.720;2023-04-25T03:32:40;7.63;;;2.37;;
18435;SDS011;9346;52.006;4.720;2023-04-25T03:35:07;3.53;;;2.43;;
18435;SDS011;9346;52.006;4.720;2023-04-25T03:37:35;5.13;;;1.73;;
18435;SDS011;9346;52.006;4.720;2023-04-25T03:40:05;6.87;;;1.10;;
18435;SDS011;9346;52.006;4.720;2023-04-25T03:42:33;3.33;;;1.17;;
18435;SDS011;9346;52.006;4.720;2023-04-25T03:44:59;2.47;;;1.60;;
18435;SDS011;9346;52.006;4.720;2023-04-25T03:47:27;6.10;;;1.70;;
18435;SDS011;9346;52.006;4.720;2023-04-25T03:49:53;4.77;;;1.37;;
18435;SDS011;9346;52.006;4.720;2023-04-25T03:52:20;7.17;;;1.43;;
18435;SDS011;9346;52.006;4.720;2023-04-25T03:54:47;8.57;;;1.97;;
18435;SDS011;9346;52.006;4.720;2023-04-25T03:57:16;7.37;;;1.97;;
18435;SDS011;9346;52.006;4.720;2023-04-25T03:59:43;11.23;;;2.00;;
18435;SDS011;9346;52.006;4.720;2023-04-25T04:02:10;10.63;;;2.00;;
18435;SDS011;9346;52.006;4.720;2023-04-25T04:04:37;5.27;;;1.47;;
18435;SDS011;9346;52.006;4.720;2023-04-25T04:07:04;2.10;;;1.30;;
18435;SDS011;9346;52.006;4.720;2023-04-25T04:09:31;4.50;;;2.00;;
18435;SDS011;9346;52.006;4.720;2023-04-25T04:11:58;1.63;;;1.30;;
18435;SDS011;9346;52.006;4.720;2023-04-25T04:14:28;12.23;;;2.60;;
18435;SDS011;9346;52.006;4.720;2023-04-25T04:16:55;6.30;;;1.70;;
18435;SDS011;9346;52.006;4.720;2023-04-25T04:19:21;7.87;;;1.70;;
18435;SDS011;9346;52.006;4.720;2023-04-25T04:21:48;15.07;;;2.37;;
18435;SDS011;9346;52.006;4.720;2023-04-25T04:24:15;8.30;;;1.67;;
18435;SDS011;9346;52.006;4.720;2023-04-25T04:26:43;3.77;;;1.47;;
18435;SDS011;9346;52.006;4.720;2023-04-25T04:29:10;8.80;;;1.70;;
18435;SDS011;9346;52.006;4.720;2023-04-25T04:31:47;12.03;;;1.87;;
18435;SDS011;9346;52.006;4.720;2023-04-25T04:34:14;7.27;;;1.57;;
18435;SDS011;9346;52.006;4.720;2023-04-25T04:36:42;5.90;;;1.90;;
18435;SDS011;9346;52.006;4.720;2023-04-25T04:39:10;8.53;;;1.73;;
18435;SDS011;9346;52.006;4.720;2023-04-25T04:41:37;8.13;;;2.33;;
18435;SDS011;9346;52.006;4.720;2023-04-25T04:44:04;9.00;;;2.10;;
18435;SDS011;9346;52.006;4.720;2023-04-25T04:46:32;19.73;;;2.07;;
18435;SDS011;9346;52.006;4.720;2023-04-25T04:49:04;3.57;;;1.47;;
18435;SDS011;9346;52.006;4.720;2023-04-25T04:51:31;11.87;;;1.43;;
18435;SDS011;9346;52.006;4.720;2023-04-25T04:53:58;4.97;;;2.13;;
18435;SDS011;9346;52.006;4.720;2023-04-25T04:56:27;3.93;;;1.30;;
18435;SDS011;9346;52.006;4.720;2023-04-25T04:58:55;9.37;;;1.97;;
18435;SDS011;9346;52.006;4.720;2023-04-25T05:01:23;4.07;;;1.20;;
18435;SDS011;9346;52.006;4.720;2023-04-25T05:03:51;3.20;;;1.20;;
18435;SDS011;9346;52.006;4.720;2023-04-25T05:06:20;3.03;;;1.23;;
18435;SDS011;9346;52.006;4.720;2023-04-25T05:08:47;4.47;;;1.10;;
18435;SDS011;9346;52.006;4.720;2023-04-25T05:11:14;3.67;;;1.43;;
18435;SDS011;9346;52.006;4.720;2023-04-25T05:13:41;9.20;;;2.47;;
18435;SDS011;9346;52.006;4.720;2023-04-25T05:16:08;6.40;;;1.37;;
18435;SDS011;9346;52.006;4.720;2023-04-25T05:18:35;2.83;;;1.30;;
18435;SDS011;9346;52.006;4.720;2023-04-25T05:21:02;9.60;;;1.63;;
18435;SDS011;9346;52.006;4.720;2023-04-25T05:23:32;4.40;;;1.30;;
18435;SDS011;9346;52.006;4.720;2023-04-25T05:25:59;4.63;;;1.87;;
18435;SDS011;9346;52.006;4.720;2023-04-25T05:28:26;13.10;;;1.97;;
18435;SDS011;9346;52.006;4.720;2023-04-25T05:30:53;7.77;;;1.80;;
18435;SDS011;9346;52.006;4.720;2023-04-25T05:33:20;2.87;;;1.30;;
18435;SDS011;9346;52.006;4.720;2023-04-25T05:35:47;6.83;;;1.17;;
18435;SDS011;9346;52.006;4.720;2023-04-25T05:38:16;8.23;;;1.57;;
18435;SDS011;9346;52.006;4.720;2023-04-25T05:40:44;4.17;;;1.50;;
18435;SDS011;9346;52.006;4.720;2023-04-25T05:43:11;4.70;;;1.40;;
18435;SDS011;9346;52.006;4.720;2023-04-25T05:45:38;5.77;;;1.50;;
18435;SDS011;9346;52.006;4.720;2023-04-25T05:48:05;7.10;;;1.73;;
18435;SDS011;9346;52.006;4.720;2023-04-25T05:50:32;4.57;;;1.27;;
18435;SDS011;9346;52.006;4.720;2023-04-25T05:53:01;8.40;;;1.63;;
18435;SDS011;9346;52.006;4.720;2023-04-25T05:55:30;2.77;;;1.10;;
18435;SDS011;9346;52.006;4.720;2023-04-25T05:57:59;10.30;;;2.40;;
18435;SDS011;9346;52.006;4.720;2023-04-25T06:00:27;7.57;;;1.70;;
18435;SDS011;9346;52.006;4.720;2023-04-25T06:02:55;9.63;;;1.40;;
18435;SDS011;9346;52.006;4.720;2023-04-25T06:05:23;3.50;;;1.10;;
18435;SDS011;9346;52.006;4.720;2023-04-25T06:07:50;3.40;;;1.30;;
18435;SDS011;9346;52.006;4.720;2023-04-25T06:10:17;10.40;;;1.17;;
18435;SDS011;9346;52.006;4.720;2023-04-25T06:12:44;5.23;;;1.00;;
18435;SDS011;9346;52.006;4.720;2023-04-25T06:15:13;6.80;;;1.30;;
18435;SDS011;9346;52.006;4.720;2023-04-25T06:17:41;4.77;;;1.37;;
18435;SDS011;9346;52.006;4.720;2023-04-25T06:20:11;5.97;;;1.00;;
18435;SDS011;9346;52.006;4.720;2023-04-25T06:22:38;3.70;;;1.37;;
18435;SDS011;9346;52.006;4.720;2023-04-25T06:25:06;5.70;;;1.37;;
18435;SDS011;9346;52.006;4.720;2023-04-25T06:27:33;1.77;;;1.30;;
18435;SDS011;9346;52.006;4.720;2023-04-25T06:30:00;3.23;;;1.27;;
18435;SDS011;9346;52.006;4.720;2023-04-25T06:32:32;1.97;;;1.10;;
18435;SDS011;9346;52.006;4.720;2023-04-25T06:35:00;1.93;;;1.23;;
18435;SDS011;9346;52.006;4.720;2023-04-25T06:37:28;4.40;;;1.10;;
18435;SDS011;9346;52.006;4.720;2023-04-25T06:39:55;4.73;;;1.37;;
18435;SDS011;9346;52.006;4.720;2023-04-25T06:42:24;1.87;;;1.00;;
18435;SDS011;9346;52.006;4.720;2023-04-25T06:44:52;1.57;;;1.00;;
18435;SDS011;9346;52.006;4.720;2023-04-25T06:47:19;4.50;;;1.00;;
18435;SDS011;9346;52.006;4.720;2023-04-25T06:49:49;6.27;;;1.47;;
18435;SDS011;9346;52.006;4.720;2023-04-25T06:52:16;1.90;;;1.40;;
18435;SDS011;9346;52.006;4.720;2023-04-25T06:54:45;3.97;;;1.23;;
18435;SDS011;9346;52.006;4.720;2023-04-25T06:57:12;2.73;;;1.07;;
18435;SDS011;9346;52.006;4.720;2023-04-25T06:59:40;8.13;;;1.27;;
18435;SDS011;9346;52.006;4.720;2023-04-25T07:02:10;8.17;;;1.60;;
18435;SDS011;9346;52.006;4.720;2023-04-25T07:04:37;6.67;;;1.03;;
18435;SDS011;9346;52.006;4.720;2023-04-25T07:07:05;3.00;;;1.20;;
18435;SDS011;9346;52.006;4.720;2023-04-25T07:09:33;7.70;;;1.80;;
18435;SDS011;9346;52.006;4.720;2023-04-25T07:12:01;11.63;;;2.37;;
18435;SDS011;9346;52.006;4.720;2023-04-25T07:14:28;3.07;;;1.50;;
18435;SDS011;9346;52.006;4.720;2023-04-25T07:16:55;5.33;;;1.07;;
18435;SDS011;9346;52.006;4.720;2023-04-25T07:19:23;14.03;;;2.20;;
18435;SDS011;9346;52.006;4.720;2023-04-25T07:21:51;10.50;;;2.93;;
18435;SDS011;9346;52.006;4.720;2023-04-25T07:24:20;2.77;;;1.23;;
18435;SDS011;9346;52.006;4.720;2023-04-25T07:26:47;5.07;;;1.40;;
18435;SDS011;9346;52.006;4.720;2023-04-25T07:29:15;3.83;;;1.40;;
18435;SDS011;9346;52.006;4.720;2023-04-25T07:31:42;3.30;;;1.03;;
18435;SDS011;9346;52.006;4.720;2023-04-25T07:34:09;5.93;;;1.40;;
18435;SDS011;9346;52.006;4.720;2023-04-25T07:36:37;9.53;;;1.63;;
18435;SDS011;9346;52.006;4.720;2023-04-25T07:39:05;8.30;;;1.33;;
18435;SDS011;9346;52.006;4.720;2023-04-25T07:41:35;5.13;;;1.30;;
18435;SDS011;9346;52.006;4.720;2023-04-25T07:44:02;3.07;;;1.20;;
18435;SDS011;9346;52.006;4.720;2023-04-25T07:46:30;4.67;;;1.60;;
18435;SDS011;9346;52.006;4.720;2023-04-25T07:48:59;9.13;;;1.20;;
18435;SDS011;9346;52.006;4.720;2023-04-25T07:51:26;5.37;;;1.27;;
18435;SDS011;9346;52.006;4.720;2023-04-25T07:53:56;5.57;;;1.17;;
18435;SDS011;9346;52.006;4.720;2023-04-25T07:56:24;6.53;;;1.37;;
18435;SDS011;9346;52.006;4.720;2023-04-25T07:58:54;2.43;;;1.00;;
18435;SDS011;9346;52.006;4.720;2023-04-25T08:01:21;4.43;;;1.20;;
18435;SDS011;9346;52.006;4.720;2023-04-25T08:03:48;3.20;;;1.40;;
18435;SDS011;9346;52.006;4.720;2023-04-25T08:06:15;9.03;;;1.30;;
18435;SDS011;9346;52.006;4.720;2023-04-25T08:08:42;6.33;;;1.50;;
18435;SDS011;9346;52.006;4.720;2023-04-25T08:11:10;17.10;;;1.70;;
18435;SDS011;9346;52.006;4.720;2023-04-25T08:13:37;3.83;;;0.80;;
18435;SDS011;9346;52.006;4.720;2023-04-25T08:16:08;12.50;;;1.20;;
18435;SDS011;9346;52.006;4.720;2023-04-25T08:18:36;8.10;;;1.40;;
18435;SDS011;9346;52.006;4.720;2023-04-25T08:21:05;7.10;;;1.07;;
18435;SDS011;9346;52.006;4.720;2023-04-25T08:23:33;7.10;;;1.47;;
18435;SDS011;9346;52.006;4.720;2023-04-25T08:26:01;5.37;;;0.97;;
18435;SDS011;9346;52.006;4.720;2023-04-25T08:28:29;5.00;;;1.17;;
18435;SDS011;9346;52.006;4.720;2023-04-25T08:30:59;8.70;;;1.50;;
18435;SDS011;9346;52.006;4.720;2023-04-25T08:33:28;9.97;;;1.33;;
18435;SDS011;9346;52.006;4.720;2023-04-25T08:35:56;3.03;;;1.30;;
18435;SDS011;9346;52.006;4.720;2023-04-25T08:38:24;1.77;;;0.73;;
18435;SDS011;9346;52.006;4.720;2023-04-25T08:40:51;5.97;;;0.90;;
18435;SDS011;9346;52.006;4.720;2023-04-25T08:43:19;1.97;;;0.63;;
18435;SDS011;9346;52.006;4.720;2023-04-25T08:45:47;2.80;;;1.37;;
18435;SDS011;9346;52.006;4.720;2023-04-25T08:48:15;3.40;;;1.03;;
18435;SDS011;9346;52.006;4.720;2023-04-25T08:50:48;2.03;;;0.87;;
18435;SDS011;9346;52.006;4.720;2023-04-25T08:53:17;0.80;;;0.70;;
18435;SDS011;9346;52.006;4.720;2023-04-25T08:55:48;2.23;;;0.60;;
18435;SDS011;9346;52.006;4.720;2023-04-25T08:58:16;4.03;;;1.03;;
18435;SDS011;9346;52.006;4.720;2023-04-25T09:00:45;1.07;;;0.73;;
18435;SDS011;9346;52.006;4.720;2023-04-25T09:03:14;10.00;;;1.13;;
18435;SDS011;9346;52.006;4.720;2023-04-25T09:05:41;2.90;;;0.80;;
18435;SDS011;9346;52.006;4.720;2023-04-25T09:08:11;6.53;;;0.87;;
18435;SDS011;9346;52.006;4.720;2023-04-25T09:10:39;1.77;;;0.80;;
18435;SDS011;9346;52.006;4.720;2023-04-25T09:13:10;1.07;;;0.73;;
18435;SDS011;9346;52.006;4.720;2023-04-25T09:15:48;1.17;;;0.67;;
18435;SDS011;9346;52.006;4.720;2023-04-25T09:18:22;3.20;;;1.03;;
18435;SDS011;9346;52.006;4.720;2023-04-25T09:20:51;1.90;;;0.80;;
18435;SDS011;9346;52.006;4.720;2023-04-25T09:23:20;5.63;;;0.73;;
18435;SDS011;9346;52.006;4.720;2023-04-25T09:25:48;3.67;;;0.80;;
18435;SDS011;9346;52.006;4.720;2023-04-25T09:28:17;3.37;;;1.27;;
18435;SDS011;9346;52.006;4.720;2023-04-25T09:30:53;1.13;;;0.70;;
18435;SDS011;9346;52.006;4.720;2023-04-25T09:33:26;1.67;;;0.73;;
18435;SDS011;9346;52.006;4.720;2023-04-25T09:36:01;6.90;;;1.03;;
18435;SDS011;9346;52.006;4.720;2023-04-25T09:38:39;2.40;;;0.83;;
18435;SDS011;9346;52.006;4.720;2023-04-25T09:41:07;3.73;;;1.20;;
18435;SDS011;9346;52.006;4.720;2023-04-25T09:43:35;4.10;;;1.00;;
18435;SDS011;9346;52.006;4.720;2023-04-25T09:46:02;2.13;;;0.97;;
18435;SDS011;9346;52.006;4.720;2023-04-25T09:48:34;3.17;;;0.80;;
18435;SDS011;9346;52.006;4.720;2023-04-25T09:51:05;0.97;;;0.70;;
18435;SDS011;9346;52.006;4.720;2023-04-25T09:53:36;4.97;;;1.00;;
18435;SDS011;9346;52.006;4.720;2023-04-25T09:56:04;0.87;;;0.60;;
18435;SDS011;9346;52.006;4.720;2023-04-25T09:58:33;2.93;;;0.67;;
18435;SDS011;9346;52.006;4.720;2023-04-25T10:01:03;2.70;;;0.67;;
18435;SDS011;9346;52.006;4.720;2023-04-25T10:03:32;3.60;;;1.23;;
18435;SDS011;9346;52.006;4.720;2023-04-25T10:06:00;5.40;;;0.73;;
18435;SDS011;9346;52.006;4.720;2023-04-25T10:08:30;2.90;;;0.83;;
18435;SDS011;9346;52.006;4.720;2023-04-25T10:11:02;3.47;;;0.90;;
18435;SDS011;9346;52.006;4.720;2023-04-25T10:13:30;4.27;;;0.60;;
18435;SDS011;9346;52.006;4.720;2023-04-25T10:15:57;9.30;;;1.30;;
18435;SDS011;9346;52.006;4.720;2023-04-25T10:18:26;5.57;;;0.80;;
18435;SDS011;9346;52.006;4.720;2023-04-25T10:20:54;2.53;;;0.77;;
18435;SDS011;9346;52.006;4.720;2023-04-25T10:23:23;4.67;;;1.40;;
18435;SDS011;9346;52.006;4.720;2023-04-25T10:25:51;6.37;;;0.63;;
18435;SDS011;9346;52.006;4.720;2023-04-25T10:28:21;7.93;;;1.30;;
18435;SDS011;9346;52.006;4.720;2023-04-25T10:30:57;2.73;;;0.80;;
18435;SDS011;9346;52.006;4.720;2023-04-25T10:33:34;3.27;;;0.80;;
18435;SDS011;9346;52.006;4.720;2023-04-25T10:36:09;1.40;;;0.97;;
18435;SDS011;9346;52.006;4.720;2023-04-25T10:38:38;8.43;;;1.17;;
18435;SDS011;9346;52.006;4.720;2023-04-25T10:41:08;3.73;;;1.03;;
18435;SDS011;9346;52.006;4.720;2023-04-25T10:43:38;5.37;;;1.20;;
18435;SDS011;9346;52.006;4.720;2023-04-25T10:46:12;5.57;;;1.53;;
18435;SDS011;9346;52.006;4.720;2023-04-25T10:48:45;2.70;;;1.10;;
18435;SDS011;9346;52.006;4.720;2023-04-25T10:51:17;5.63;;;0.97;;
18435;SDS011;9346;52.006;4.720;2023-04-25T10:53:45;1.57;;;0.73;;
18435;SDS011;9346;52.006;4.720;2023-04-25T10:56:16;2.70;;;1.03;;
18435;SDS011;9346;52.006;4.720;2023-04-25T10:58:46;6.40;;;0.97;;
18435;SDS011;9346;52.006;4.720;2023-04-25T11:01:19;2.67;;;0.83;;
18435;SDS011;9346;52.006;4.720;2023-04-25T11:03:47;3.10;;;0.77;;
18435;SDS011;9346;52.006;4.720;2023-04-25T11:06:20;1.70;;;0.80;;
18435;SDS011;9346;52.006;4.720;2023-04-25T11:08:50;3.77;;;0.93;;
18435;SDS011;9346;52.006;4.720;2023-04-25T11:11:17;1.97;;;0.60;;
18435;SDS011;9346;52.006;4.720;2023-04-25T11:13:48;6.00;;;1.20;;
18435;SDS011;9346;52.006;4.720;2023-04-25T11:16:16;3.43;;;0.90;;
18435;SDS011;9346;52.006;4.720;2023-04-25T11:18:44;3.17;;;0.87;;
18435;SDS011;9346;52.006;4.720;2023-04-25T11:21:13;6.20;;;1.20;;
18435;SDS011;9346;52.006;4.720;2023-04-25T11:23:40;5.73;;;1.00;;
18435;SDS011;9346;52.006;4.720;2023-04-25T11:26:07;4.33;;;1.10;;
18435;SDS011;9346;52.006;4.720;2023-04-25T11:28:34;3.67;;;1.67;;
18435;SDS011;9346;52.006;4.720;2023-04-25T11:31:04;4.83;;;1.23;;
18435;SDS011;9346;52.006;4.720;2023-04-25T11:33:31;1.37;;;0.80;;
18435;SDS011;9346;52.006;4.720;2023-04-25T11:35:58;5.67;;;0.90;;
18435;SDS011;9346;52.006;4.720;2023-04-25T11:38:25;1.10;;;0.80;;
18435;SDS011;9346;52.006;4.720;2023-04-25T11:40:52;2.10;;;0.80;;
18435;SDS011;9346;52.006;4.720;2023-04-25T11:43:21;2.03;;;1.07;;
18435;SDS011;9346;52.006;4.720;2023-04-25T11:45:49;5.13;;;0.80;;
18435;SDS011;9346;52.006;4.720;2023-04-25T11:48:19;1.40;;;0.90;;
18435;SDS011;9346;52.006;4.720;2023-04-25T11:50:46;4.30;;;1.30;;
18435;SDS011;9346;52.006;4.720;2023-04-25T11:53:13;1.30;;;0.80;;
18435;SDS011;9346;52.006;4.720;2023-04-25T11:55:40;10.00;;;1.07;;
18435;SDS011;9346;52.006;4.720;2023-04-25T11:58:07;7.20;;;1.27;;
18435;SDS011;9346;52.006;4.720;2023-04-25T12:00:35;2.93;;;1.07;;
18435;SDS011;9346;52.006;4.720;2023-04-25T12:03:03;2.63;;;1.00;;
18435;SDS011;9346;52.006;4.720;2023-04-25T12:05:33;2.97;;;1.20;;
18435;SDS011;9346;52.006;4.720;2023-04-25T12:08:10;1.87;;;0.87;;
18435;SDS011;9346;52.006;4.720;2023-04-25T12:10:38;1.77;;;0.90;;
18435;SDS011;9346;52.006;4.720;2023-04-25T12:13:22;4.47;;;0.97;;
18435;SDS011;9346;52.006;4.720;2023-04-25T12:15:53;3.10;;;1.07;;
18435;SDS011;9346;52.006;4.720;2023-04-25T12:18:22;2.50;;;0.60;;
18435;SDS011;9346;52.006;4.720;2023-04-25T12:20:53;2.37;;;0.93;;
18435;SDS011;9346;52.006;4.720;2023-04-25T12:23:25;1.43;;;0.73;;
18435;SDS011;9346;52.006;4.720;2023-04-25T12:25:53;2.10;;;0.60;;
18435;SDS011;9346;52.006;4.720;2023-04-25T12:28:23;0.77;;;0.67;;
18435;SDS011;9346;52.006;4.720;2023-04-25T12:30:53;2.40;;;0.93;;
18435;SDS011;9346;52.006;4.720;2023-04-25T12:33:21;2.77;;;0.50;;
18435;SDS011;9346;52.006;4.720;2023-04-25T12:35:49;3.13;;;0.90;;
18435;SDS011;9346;52.006;4.720;2023-04-25T12:38:27;5.60;;;0.73;;
18435;SDS011;9346;52.006;4.720;2023-04-25T12:40:56;7.20;;;1.00;;
18435;SDS011;9346;52.006;4.720;2023-04-25T12:43:24;3.63;;;1.07;;
18435;SDS011;9346;52.006;4.720;2023-04-25T12:45:53;2.83;;;0.87;;
18435;SDS011;9346;52.006;4.720;2023-04-25T12:48:24;3.57;;;1.00;;
18435;SDS011;9346;52.006;4.720;2023-04-25T12:50:51;6.10;;;1.53;;
18435;SDS011;9346;52.006;4.720;2023-04-25T12:53:19;3.50;;;1.37;;
18435;SDS011;9346;52.006;4.720;2023-04-25T12:55:48;4.60;;;0.67;;
18435;SDS011;9346;52.006;4.720;2023-04-25T12:58:16;2.17;;;0.80;;
18435;SDS011;9346;52.006;4.720;2023-04-25T13:00:45;3.17;;;1.10;;
18435;SDS011;9346;52.006;4.720;2023-04-25T13:03:12;7.23;;;1.23;;
18435;SDS011;9346;52.006;4.720;2023-04-25T13:05:39;1.97;;;1.03;;
18435;SDS011;9346;52.006;4.720;2023-04-25T13:08:08;3.30;;;0.83;;
18435;SDS011;9346;52.006;4.720;2023-04-25T13:10:36;3.00;;;0.90;;
18435;SDS011;9346;52.006;4.720;2023-04-25T13:13:05;2.80;;;0.80;;
18435;SDS011;9346;52.006;4.720;2023-04-25T13:15:33;1.77;;;0.77;;
18435;SDS011;9346;52.006;4.720;2023-04-25T13:18:03;3.50;;;1.00;;
18435;SDS011;9346;52.006;4.720;2023-04-25T13:20:33;1.90;;;0.70;;
18435;SDS011;9346;52.006;4.720;2023-04-25T13:23:01;4.83;;;0.80;;
18435;SDS011;9346;52.006;4.720;2023-04-25T13:25:28;2.87;;;1.27;;
18435;SDS011;9346;52.006;4.720;2023-04-25T13:27:57;2.80;;;0.80;;
18435;SDS011;9346;52.006;4.720;2023-04-25T13:30:26;4.80;;;1.03;;
18435;SDS011;9346;52.006;4.720;2023-04-25T13:32:53;3.77;;;0.70;;
18435;SDS011;9346;52.006;4.720;2023-04-25T13:35:28;10.27;;;1.43;;
18435;SDS011;9346;52.006;4.720;2023-04-25T13:37:55;3.97;;;1.03;;
18435;SDS011;9346;52.006;4.720;2023-04-25T13:40:26;2.97;;;0.97;;
18435;SDS011;9346;52.006;4.720;2023-04-25T13:42:54;2.20;;;0.90;;
18435;SDS011;9346;52.006;4.720;2023-04-25T13:45:22;4.13;;;1.07;;
18435;SDS011;9346;52.006;4.720;2023-04-25T13:47:51;6.67;;;1.33;;
18435;SDS011;9346;52.006;4.720;2023-04-25T13:50:19;3.40;;;1.17;;
18435;SDS011;9346;52.006;4.720;2023-04-25T13:52:47;2.60;;;0.90;;
18435;SDS011;9346;52.006;4.720;2023-04-25T13:55:15;6.10;;;1.10;;
18435;SDS011;9346;52.006;4.720;2023-04-25T13:57:43;2.83;;;0.80;;
18435;SDS011;9346;52.006;4.720;2023-04-25T14:00:11;2.83;;;0.90;;
18435;SDS011;9346;52.006;4.720;2023-04-25T14:02:38;1.30;;;1.00;;
18435;SDS011;9346;52.006;4.720;2023-04-25T14:05:08;2.77;;;1.00;;
18435;SDS011;9346;52.006;4.720;2023-04-25T14:07:36;3.67;;;0.97;;
18435;SDS011;9346;52.006;4.720;2023-04-25T14:10:04;3.87;;;0.97;;
18435;SDS011;9346;52.006;4.720;2023-04-25T14:12:32;10.03;;;1.23;;
18435;SDS011;9346;52.006;4.720;2023-04-25T14:15:00;4.27;;;1.10;;
18435;SDS011;9346;52.006;4.720;2023-04-25T14:17:27;9.37;;;2.07;;
18435;SDS011;9346;52.006;4.720;2023-04-25T14:19:54;4.40;;;1.03;;
18435;SDS011;9346;52.006;4.720;2023-04-25T14:22:23;3.77;;;1.07;;
18435;SDS011;9346;52.006;4.720;2023-04-25T14:24:50;1.47;;;0.97;;
18435;SDS011;9346;52.006;4.720;2023-04-25T14:27:17;4.47;;;0.80;;
18435;SDS011;9346;52.006;4.720;2023-04-25T14:29:45;5.37;;;0.90;;
18435;SDS011;9346;52.006;4.720;2023-04-25T14:32:12;6.00;;;0.90;;
18435;SDS011;9346;52.006;4.720;2023-04-25T14:34:40;4.93;;;1.00;;
18435;SDS011;9346;52.006;4.720;2023-04-25T14:37:10;4.07;;;1.07;;
18435;SDS011;9346;52.006;4.720;2023-04-25T14:39:41;1.60;;;1.00;;
18435;SDS011;9346;52.006;4.720;2023-04-25T14:42:08;1.60;;;0.87;;
18435;SDS011;9346;52.006;4.720;2023-04-25T14:44:43;4.13;;;0.97;;
18435;SDS011;9346;52.006;4.720;2023-04-25T14:47:10;4.17;;;1.03;;
18435;SDS011;9346;52.006;4.720;2023-04-25T14:49:37;5.73;;;1.13;;
18435;SDS011;9346;52.006;4.720;2023-04-25T14:52:19;3.10;;;1.30;;
18435;SDS011;9346;52.006;4.720;2023-04-25T14:54:47;6.90;;;1.27;;
18435;SDS011;9346;52.006;4.720;2023-04-25T14:57:15;4.57;;;0.60;;
18435;SDS011;9346;52.006;4.720;2023-04-25T14:59:42;5.23;;;1.07;;
18435;SDS011;9346;52.006;4.720;2023-04-25T15:02:11;3.97;;;1.23;;
18435;SDS011;9346;52.006;4.720;2023-04-25T15:04:38;3.20;;;1.47;;
18435;SDS011;9346;52.006;4.720;2023-04-25T15:07:07;2.70;;;1.07;;